createdAt,value
2022-09-27T00:01:11.092Z,70269.94
2022-09-27T00:03:39.308Z,70309.06
2022-09-27T00:06:26.201Z,70265.22
2022-09-27T00:08:53.771Z,70275.19
2022-09-27T00:11:39.239Z,70235.75
2022-09-27T00:14:07.458Z,70228.16
2022-09-27T00:16:38.399Z,70244.53
2022-09-27T00:19:22.699Z,70292.25
2022-09-27T00:21:50.810Z,70294.06
2022-09-27T00:24:22.541Z,70287.81
2022-09-27T00:26:50.340Z,70259.81
2022-09-27T00:29:19.820Z,70260.69
2022-09-27T00:31:47.986Z,70282.78
2022-09-27T00:34:24.719Z,70258.09
2022-09-27T00:36:52.951Z,70248.72
2022-09-27T00:39:20.504Z,70289.31
2022-09-27T00:41:47.676Z,70222.72
2022-09-27T00:44:29.536Z,70253.59
2022-09-27T00:47:09.901Z,70261.00
2022-09-27T00:49:48.053Z,70281.03
2022-09-27T00:52:44.415Z,70265.44
2022-09-27T00:55:30.864Z,70259.28
2022-09-27T00:57:58.669Z,70275.78
2022-09-27T01:00:25.976Z,70246.34
2022-09-27T01:02:56.180Z,70275.50
2022-09-27T01:05:28.597Z,70240.47
2022-09-27T01:08:00.774Z,70250.47
2022-09-27T01:10:38.541Z,70264.03
2022-09-27T01:13:28.848Z,70230.44
2022-09-27T01:16:25.719Z,70283.44
2022-09-27T01:19:28.016Z,70226.91
2022-09-27T01:22:18.777Z,70280.81
2022-09-27T01:24:48.571Z,70231.03
2022-09-27T01:27:39.995Z,70248.78
2022-09-27T01:30:43.376Z,70241.09
2022-09-27T01:34:07.745Z,70266.06
2022-09-27T01:36:56.383Z,70246.97
2022-09-27T01:40:18.441Z,70221.41
2022-09-27T01:43:51.013Z,70272.00
2022-09-27T01:46:51.318Z,70292.31
2022-09-27T01:50:05.880Z,70254.59
2022-09-27T01:52:45.495Z,70245.22
2022-09-27T01:55:16.833Z,70256.97
2022-09-27T01:58:34.316Z,70232.28
2022-09-27T02:01:03.274Z,70246.97
2022-09-27T02:03:48.905Z,70237.34
2022-09-27T02:06:44.169Z,70249.63
2022-09-27T02:09:38.478Z,70272.88
2022-09-27T02:12:40.206Z,70258.75
2022-09-27T02:15:15.512Z,70267.00
2022-09-27T02:18:07.234Z,70269.34
2022-09-27T02:20:44.922Z,70240.19
2022-09-27T02:23:41.671Z,70264.28
2022-09-27T02:26:31.378Z,70279.69
2022-09-27T02:29:21.192Z,70278.69
2022-09-27T02:31:52.222Z,70285.19
2022-09-27T02:34:33.926Z,70242.38
2022-09-27T02:37:01.679Z,70260.78
2022-09-27T02:39:28.934Z,70280.81
2022-09-27T02:42:05.588Z,70218.13
2022-09-27T02:44:33.438Z,70279.09
2022-09-27T02:47:37.320Z,70251.69
2022-09-27T02:50:45.279Z,70283.81
2022-09-27T02:53:39.547Z,70234.03
2022-09-27T02:56:43.908Z,70215.78
2022-09-27T02:59:41.673Z,70265.91
2022-09-27T03:02:49.074Z,70250.63
2022-09-27T03:05:51.697Z,70267.47
2022-09-27T03:08:20.334Z,70205.38
2022-09-27T03:10:47.351Z,70214.78
2022-09-27T03:13:14.511Z,70224.22
2022-09-27T03:15:42.434Z,70192.75
2022-09-27T03:18:30.143Z,70241.34
2022-09-27T03:21:23.496Z,70238.94
2022-09-27T03:23:50.841Z,70213.38
2022-09-27T03:26:17.926Z,70187.84
2022-09-27T03:28:45.343Z,70180.81
2022-09-27T03:31:14.638Z,70168.75
2022-09-27T03:33:52.302Z,70163.53
2022-09-27T03:36:19.606Z,70210.03
2022-09-27T03:38:46.605Z,70145.03
2022-09-27T03:41:17.274Z,70157.47
2022-09-27T03:43:44.469Z,70163.94
2022-09-27T03:46:12.061Z,70161.63
2022-09-27T03:48:39.199Z,70124.91
2022-09-27T03:51:06.588Z,70164.91
2022-09-27T03:53:34.024Z,70155.16
2022-09-27T03:56:01.433Z,70147.84
2022-09-27T03:58:29.182Z,70154.91
2022-09-27T04:00:56.398Z,70129.34
2022-09-27T04:03:24.740Z,70142.34
2022-09-27T04:06:10.253Z,70121.03
2022-09-27T04:08:41.334Z,70139.47
2022-09-27T04:11:10.761Z,70125.72
2022-09-27T04:13:39.827Z,70132.44
2022-09-27T04:16:07.934Z,70153.59
2022-09-27T04:18:34.991Z,70148.31
2022-09-27T04:21:14.339Z,70068.50
2022-09-27T04:23:48.388Z,70120.72
2022-09-27T04:26:17.672Z,70097.84
2022-09-27T04:29:14.253Z,70071.09
2022-09-27T04:31:48.213Z,70139.56
2022-09-27T04:34:48.681Z,70071.13
2022-09-27T04:37:22.251Z,70080.84
2022-09-27T04:39:51.525Z,70122.59
2022-09-27T04:42:19.716Z,70090.22
2022-09-27T04:44:47.908Z,70106.72
2022-09-27T04:47:15.091Z,70083.75
2022-09-27T04:49:43.051Z,70122.56
2022-09-27T04:52:10.143Z,70103.44
2022-09-27T04:54:38.095Z,70108.75
2022-09-27T04:57:12.871Z,70084.94
2022-09-27T04:59:41.604Z,70122.56
2022-09-27T05:02:09.419Z,70167.81
2022-09-27T05:05:09.894Z,70112.28
2022-09-27T05:07:40.810Z,70156.94
2022-09-27T05:10:13.735Z,70084.97
2022-09-27T05:12:41.141Z,70109.31
2022-09-27T05:15:09.734Z,70103.78
2022-09-27T05:17:39.374Z,70098.75
2022-09-27T05:20:25.699Z,70111.97
2022-09-27T05:23:04.502Z,70071.66
2022-09-27T05:25:32.510Z,70107.88
2022-09-27T05:28:00.127Z,70090.19
2022-09-27T05:30:27.830Z,70122.56
2022-09-27T05:33:05.429Z,70127.53
2022-09-27T05:35:55.761Z,70071.34
2022-09-27T05:38:30.152Z,70098.38
2022-09-27T05:41:00.050Z,70133.59
2022-09-27T05:43:28.358Z,70144.19
2022-09-27T05:45:58.783Z,70133.03
2022-09-27T05:48:26.453Z,70101.25
2022-09-27T05:51:03.260Z,70098.31
2022-09-27T05:53:33.578Z,70127.72
2022-09-27T05:56:05.140Z,70112.47
2022-09-27T05:58:54.733Z,70122.44
2022-09-27T06:01:23.174Z,70121.31
2022-09-27T06:04:09.138Z,70121.56
2022-09-27T06:07:08.857Z,70176.53
2022-09-27T06:09:36.014Z,70151.78
2022-09-27T06:12:03.663Z,70117.72
2022-09-27T06:14:31.097Z,70159.47
2022-09-27T06:17:01.452Z,70124.19
2022-09-27T06:19:35.862Z,70118.22
2022-09-27T06:22:03.743Z,70160.00
2022-09-27T06:24:41.714Z,70139.47
2022-09-27T06:27:17.378Z,70153.56
2022-09-27T06:30:08.480Z,70153.84
2022-09-27T06:32:58.668Z,70138.91
2022-09-27T06:35:31.930Z,70129.66
2022-09-27T06:38:04.722Z,70149.97
2022-09-27T06:40:32.711Z,70169.59
2022-09-27T06:43:20.552Z,70187.53
2022-09-27T06:46:06.925Z,70166.56
2022-09-27T06:49:00.333Z,70188.84
2022-09-27T06:51:27.671Z,70218.84
2022-09-27T06:53:54.835Z,70210.53
2022-09-27T06:56:21.908Z,70187.84
2022-09-27T06:59:10.056Z,70238.16
2022-09-27T07:01:45.025Z,70233.88
2022-09-27T07:04:30.939Z,70237.34
2022-09-27T07:07:34.119Z,70242.31
2022-09-27T07:10:04.163Z,70217.38
2022-09-27T07:12:36.683Z,70242.28
2022-09-27T07:15:06.297Z,70279.09
2022-09-27T07:17:35.889Z,70275.22
2022-09-27T07:20:05.515Z,70277.56
2022-09-27T07:22:32.799Z,70281.03
2022-09-27T07:25:03.336Z,70305.78
2022-09-27T07:27:33.164Z,70333.97
2022-09-27T07:30:01.204Z,70326.66
2022-09-27T07:32:29.135Z,70290.00
2022-09-27T07:34:56.225Z,70335.63
2022-09-27T07:37:23.760Z,70312.50
2022-09-27T07:39:50.898Z,70309.69
2022-09-27T07:42:18.248Z,70297.81
2022-09-27T07:44:48.872Z,70346.19
2022-09-27T07:47:36.519Z,70311.34
2022-09-27T07:50:11.071Z,70321.66
2022-09-27T07:52:59.483Z,70342.84
2022-09-27T07:55:57.083Z,70343.69
2022-09-27T07:58:25.744Z,70343.38
2022-09-27T08:00:58.726Z,70368.97
2022-09-27T08:03:26.302Z,70382.47
2022-09-27T08:05:53.546Z,70432.56
2022-09-27T08:08:20.745Z,70403.91
2022-09-27T08:10:50.129Z,70383.78
2022-09-27T08:13:20.219Z,70399.97
2022-09-27T08:15:48.932Z,70401.13
2022-09-27T08:18:17.570Z,70427.81
2022-09-27T08:21:10.716Z,70336.41
2022-09-27T08:23:59.659Z,70395.34
2022-09-27T08:26:35.976Z,70407.75
2022-09-27T08:29:12.897Z,70411.19
2022-09-27T08:31:51.869Z,70418.75
2022-09-27T08:34:20.531Z,70436.19
2022-09-27T08:36:47.708Z,70417.19
2022-09-27T08:39:15.727Z,70440.94
2022-09-27T08:42:04.988Z,70452.41
2022-09-27T08:45:22.934Z,70431.19
2022-09-27T08:48:05.091Z,70447.69
2022-09-27T08:50:39.949Z,70456.38
2022-09-27T08:53:26.346Z,70438.25
2022-09-27T08:55:59.343Z,70459.44
2022-09-27T08:58:36.001Z,70556.19
2022-09-27T09:01:19.247Z,70531.44
2022-09-27T09:04:32.659Z,70509.69
2022-09-27T09:07:09.693Z,70523.19
2022-09-27T09:10:38.346Z,70527.53
2022-09-27T09:14:02.030Z,70544.66
2022-09-27T09:16:49.257Z,70530.94
2022-09-27T09:19:51.926Z,70512.00
2022-09-27T09:22:57.416Z,70438.88
2022-09-27T09:25:51.515Z,70429.63
2022-09-27T09:28:44.699Z,70414.06
2022-09-27T09:31:57.588Z,70422.97
2022-09-27T09:34:38.360Z,70383.13
2022-09-27T09:37:19.727Z,70384.88
2022-09-27T09:39:56.131Z,70406.50
2022-09-27T09:42:44.808Z,70431.41
2022-09-27T09:45:39.072Z,70472.56
2022-09-27T09:48:30.213Z,70409.47
2022-09-27T09:51:02.348Z,70376.50
2022-09-27T09:53:56.018Z,70360.22
2022-09-27T09:56:45.762Z,70372.88
2022-09-27T09:59:35.702Z,70474.16
2022-09-27T10:02:26.556Z,70383.47
2022-09-27T10:05:00.194Z,70428.75
2022-09-27T10:07:32.477Z,70455.09
2022-09-27T10:10:07.045Z,70505.22
2022-09-27T10:12:57.625Z,70485.50
2022-09-27T10:15:31.632Z,70571.03
2022-09-27T10:18:00.398Z,70607.47
2022-09-27T10:20:45.536Z,70583.72
2022-09-27T10:23:25.262Z,70473.09
2022-09-27T10:26:25.457Z,70519.69
2022-09-27T10:28:53.270Z,70532.63
2022-09-27T10:31:41.838Z,70606.69
2022-09-27T10:34:42.776Z,70538.13
2022-09-27T10:37:13.027Z,70542.66
2022-09-27T10:39:53.724Z,70566.06
2022-09-27T10:42:38.583Z,70581.81
2022-09-27T10:45:29.339Z,70632.56
2022-09-27T10:48:22.822Z,70437.50
2022-09-27T10:51:19.049Z,70370.56
2022-09-27T10:53:50.147Z,70379.72
2022-09-27T10:56:34.685Z,70329.19
2022-09-27T10:59:04.171Z,70337.50
2022-09-27T11:01:45.446Z,70281.97
2022-09-27T11:04:36.529Z,70260.00
2022-09-27T11:07:23.493Z,70260.38
2022-09-27T11:10:05.549Z,70261.25
2022-09-27T11:12:36.706Z,70258.34
2022-09-27T11:15:14.488Z,70286.28
2022-09-27T11:18:50.440Z,70314.59
2022-09-27T11:21:45.794Z,70375.88
2022-09-27T11:24:48.175Z,70378.97
2022-09-27T11:27:35.392Z,70382.00
2022-09-27T11:30:10.064Z,70306.84
2022-09-27T11:33:31.294Z,70267.47
2022-09-27T11:36:11.408Z,70315.03
2022-09-27T11:39:07.241Z,70293.13
2022-09-27T11:41:52.144Z,70281.13
2022-09-27T11:45:34.122Z,70244.13
2022-09-27T11:48:24.935Z,70226.66
2022-09-27T11:51:26.514Z,70232.50
2022-09-27T11:54:41.481Z,70228.44
2022-09-27T11:57:26.439Z,70246.53
2022-09-27T12:00:16.902Z,70288.19
2022-09-27T12:03:27.017Z,70309.63
2022-09-27T12:06:07.426Z,70350.25
2022-09-27T12:08:50.337Z,70425.47
2022-09-27T12:11:30.457Z,70336.63
2022-09-27T12:14:22.556Z,70356.00
2022-09-27T12:16:57.206Z,70364.88
2022-09-27T12:19:36.975Z,70356.59
2022-09-27T12:22:16.419Z,70393.03
2022-09-27T12:24:47.062Z,70375.34
2022-09-27T12:27:50.734Z,70419.09
2022-09-27T12:30:22.268Z,70406.66
2022-09-27T12:33:08.236Z,70378.78
2022-09-27T12:35:51.522Z,70391.91
2022-09-27T12:38:53.596Z,70390.53
2022-09-27T12:41:25.116Z,70397.13
2022-09-27T12:44:11.881Z,70411.88
2022-09-27T12:47:26.584Z,70439.44
2022-09-27T12:50:30.711Z,70402.88
2022-09-27T12:53:22.820Z,70464.50
2022-09-27T12:56:24.601Z,70452.28
2022-09-27T12:59:00.534Z,70473.34
2022-09-27T13:01:52.527Z,70459.66
2022-09-27T13:04:52.427Z,70371.06
2022-09-27T13:08:09.823Z,70340.06
2022-09-27T13:11:24.930Z,70358.75
2022-09-27T13:14:02.012Z,70399.53
2022-09-27T13:16:29.401Z,70401.81
2022-09-27T13:19:02.243Z,70428.19
2022-09-27T13:21:49.356Z,70424.56
2022-09-27T13:24:39.246Z,70430.44
2022-09-27T13:27:29.634Z,70476.66
2022-09-27T13:30:16.380Z,70417.28
2022-09-27T13:33:10.469Z,70493.13
2022-09-27T13:36:31.826Z,70503.97
2022-09-27T13:39:10.372Z,70554.19
2022-09-27T13:42:27.070Z,70538.78
2022-09-27T13:45:15.141Z,70512.00
2022-09-27T13:47:50.055Z,70548.53
2022-09-27T13:50:35.379Z,70577.09
2022-09-27T13:53:39.290Z,70496.53
2022-09-27T13:56:48.245Z,70545.53
2022-09-27T13:59:52.708Z,70546.25
2022-09-27T14:03:12.745Z,70526.63
2022-09-27T14:06:08.564Z,70470.38
2022-09-27T14:09:02.746Z,70519.81
2022-09-27T14:11:38.450Z,70538.56
2022-09-27T14:14:17.597Z,70547.91
2022-09-27T14:16:50.736Z,70602.38
2022-09-27T14:19:25.502Z,70604.59
2022-09-27T14:22:13.046Z,70552.75
2022-09-27T14:24:53.665Z,70467.59
2022-09-27T14:27:36.565Z,70505.47
2022-09-27T14:30:30.285Z,70475.81
2022-09-27T14:33:33.655Z,70422.34
2022-09-27T14:36:36.334Z,70413.50
2022-09-27T14:39:15.752Z,70381.88
2022-09-27T14:41:45.239Z,70378.41
2022-09-27T14:44:19.387Z,70357.00
2022-09-27T14:46:48.009Z,70341.28
2022-09-27T14:49:25.308Z,70307.41
2022-09-27T14:51:55.351Z,70343.03
2022-09-27T14:54:27.018Z,70337.41
2022-09-27T14:56:56.278Z,70343.53
2022-09-27T14:59:35.359Z,70365.59
2022-09-27T15:02:17.384Z,70319.50
2022-09-27T15:04:49.100Z,70312.59
2022-09-27T15:07:17.088Z,70284.13
2022-09-27T15:09:46.097Z,70292.72
2022-09-27T15:12:22.926Z,70246.31
2022-09-27T15:14:54.117Z,70249.56
2022-09-27T15:17:22.919Z,70243.75
2022-09-27T15:20:24.924Z,70220.28
2022-09-27T15:22:52.215Z,70212.06
2022-09-27T15:25:32.503Z,70194.41
2022-09-27T15:28:04.617Z,70217.28
2022-09-27T15:30:42.283Z,70251.94
2022-09-27T15:33:29.523Z,70223.06
2022-09-27T15:36:03.954Z,70262.50
2022-09-27T15:38:48.139Z,70229.94
2022-09-27T15:41:20.392Z,70203.91
2022-09-27T15:43:49.981Z,70208.78
2022-09-27T15:46:28.713Z,70231.75
2022-09-27T15:49:17.799Z,70198.56
2022-09-27T15:51:49.562Z,70196.88
2022-09-27T15:54:27.312Z,70212.78
2022-09-27T15:56:56.142Z,70194.00
2022-09-27T15:59:30.358Z,70203.88
2022-09-27T16:02:15.972Z,70207.47
2022-09-27T16:04:43.130Z,70189.88
2022-09-27T16:07:13.108Z,70207.22
2022-09-27T16:09:40.512Z,70195.16
2022-09-27T16:12:08.889Z,70143.69
2022-09-27T16:14:35.911Z,70166.34
2022-09-27T16:17:03.115Z,70201.88
2022-09-27T16:19:30.183Z,70176.31
2022-09-27T16:21:57.135Z,70211.56
2022-09-27T16:24:25.438Z,70174.28
2022-09-27T16:26:52.459Z,70196.03
2022-09-27T16:29:19.581Z,70184.06
2022-09-27T16:31:47.298Z,70169.38
2022-09-27T16:34:14.543Z,70199.97
2022-09-27T16:36:41.542Z,70123.03
2022-09-27T16:39:13.082Z,70125.00
2022-09-27T16:41:41.354Z,70085.94
2022-09-27T16:44:13.481Z,70123.84
2022-09-27T16:46:47.765Z,70064.09
2022-09-27T16:49:34.049Z,70026.69
2022-09-27T16:52:01.659Z,70017.91
2022-09-27T16:54:30.585Z,69997.19
2022-09-27T16:56:59.430Z,69979.97
2022-09-27T16:59:27.605Z,69965.97
2022-09-27T17:01:58.709Z,69946.94
2022-09-27T17:04:28.102Z,69970.09
2022-09-27T17:06:56.287Z,69954.94
2022-09-27T17:09:24.780Z,69959.31
2022-09-27T17:11:52.467Z,69966.94
2022-09-27T17:14:20.732Z,69985.41
2022-09-27T17:16:49.189Z,69987.81
2022-09-27T17:19:18.425Z,69926.25
2022-09-27T17:21:46.585Z,69905.16
2022-09-27T17:24:14.107Z,69962.06
2022-09-27T17:26:42.045Z,69930.72
2022-09-27T17:29:11.761Z,69932.16
2022-09-27T17:31:41.094Z,69918.91
2022-09-27T17:34:12.108Z,69936.50
2022-09-27T17:36:43.071Z,69936.84
2022-09-27T17:39:13.916Z,69916.38
2022-09-27T17:41:41.398Z,69926.06
2022-09-27T17:44:12.241Z,69969.69
2022-09-27T17:46:40.145Z,69908.41
2022-09-27T17:49:27.831Z,69907.84
2022-09-27T17:51:55.609Z,69930.16
2022-09-27T17:54:26.175Z,69911.38
2022-09-27T17:56:53.945Z,69942.78
2022-09-27T17:59:21.439Z,69911.72
2022-09-27T18:01:49.606Z,69872.50
2022-09-27T18:04:19.602Z,69874.25
2022-09-27T18:06:47.877Z,69892.47
2022-09-27T18:09:16.839Z,69907.41
2022-09-27T18:11:45.269Z,69897.38
2022-09-27T18:14:13.180Z,69880.66
2022-09-27T18:16:46.032Z,69884.72
2022-09-27T18:19:16.686Z,69912.88
2022-09-27T18:21:44.535Z,69885.91
2022-09-27T18:24:14.755Z,69934.53
2022-09-27T18:26:42.377Z,69899.94
2022-09-27T18:29:15.495Z,69984.94
2022-09-27T18:31:48.131Z,69913.63
2022-09-27T18:34:17.578Z,69904.28
2022-09-27T18:36:45.293Z,69958.53
2022-09-27T18:39:17.385Z,69923.06
2022-09-27T18:41:45.816Z,69916.34
2022-09-27T18:44:15.096Z,69906.69
2022-09-27T18:46:43.485Z,69922.81
2022-09-27T18:49:12.635Z,69900.25
2022-09-27T18:51:43.693Z,69919.88
2022-09-27T18:54:18.234Z,69932.78
2022-09-27T18:56:47.045Z,69933.31
2022-09-27T18:59:15.101Z,69922.22
2022-09-27T19:01:46.792Z,69946.00
2022-09-27T19:04:21.491Z,69923.44
2022-09-27T19:06:51.900Z,69938.13
2022-09-27T19:09:19.433Z,69912.91
2022-09-27T19:11:47.130Z,69923.75
2022-09-27T19:14:20.454Z,69885.03
2022-09-27T19:16:48.888Z,69898.78
2022-09-27T19:19:20.353Z,69882.94
2022-09-27T19:21:48.897Z,69889.16
2022-09-27T19:24:16.478Z,69900.94
2022-09-27T19:26:44.004Z,69893.00
2022-09-27T19:29:13.115Z,69904.44
2022-09-27T19:31:41.097Z,69915.28
2022-09-27T19:34:08.608Z,69883.91
2022-09-27T19:36:36.055Z,69872.22
2022-09-27T19:39:03.662Z,69868.44
2022-09-27T19:41:31.479Z,69904.78
2022-09-27T19:43:59.014Z,69873.16
2022-09-27T19:46:27.040Z,69867.91
2022-09-27T19:48:56.191Z,69886.09
2022-09-27T19:51:28.001Z,69906.88
2022-09-27T19:53:56.622Z,69924.16
2022-09-27T19:56:24.777Z,69899.00
2022-09-27T19:58:52.757Z,69843.34
2022-09-27T20:01:25.275Z,69868.84
2022-09-27T20:03:55.775Z,69860.91
2022-09-27T20:06:23.565Z,69884.06
2022-09-27T20:08:51.334Z,69849.50
2022-09-27T20:11:21.077Z,69869.16
2022-09-27T20:13:49.818Z,69867.97
2022-09-27T20:16:25.131Z,69881.38
2022-09-27T20:18:57.776Z,69886.13
2022-09-27T20:21:29.374Z,69879.03
2022-09-27T20:23:58.395Z,69896.59
2022-09-27T20:26:27.869Z,69871.16
2022-09-27T20:28:58.003Z,69865.09
2022-09-27T20:31:29.244Z,69837.03
2022-09-27T20:33:57.028Z,69844.03
2022-09-27T20:36:25.605Z,69860.41
2022-09-27T20:38:59.562Z,69843.41
2022-09-27T20:41:49.400Z,69855.72
2022-09-27T20:44:19.167Z,69853.66
2022-09-27T20:46:47.655Z,69824.69
2022-09-27T20:49:17.864Z,69844.03
2022-09-27T20:51:51.113Z,69866.91
2022-09-27T20:54:19.129Z,69869.25
2022-09-27T20:56:48.196Z,69839.13
2022-09-27T20:59:17.532Z,69816.31
2022-09-27T21:01:47.191Z,69856.66
2022-09-27T21:04:17.050Z,69825.34
2022-09-27T21:06:45.163Z,69798.75
2022-09-27T21:09:20.180Z,69820.16
2022-09-27T21:11:51.651Z,69769.22
2022-09-27T21:14:19.422Z,69838.06
2022-09-27T21:16:46.969Z,69834.88
2022-09-27T21:19:14.682Z,69805.00
2022-09-27T21:21:42.348Z,69810.31
2022-09-27T21:24:10.012Z,69774.66
2022-09-27T21:26:37.816Z,69810.94
2022-09-27T21:29:10.996Z,69793.41
2022-09-27T21:31:38.679Z,69780.50
2022-09-27T21:34:06.770Z,69800.41
2022-09-27T21:36:37.442Z,69758.34
2022-09-27T21:39:06.425Z,69774.47
2022-09-27T21:41:34.329Z,69752.50
2022-09-27T21:44:04.571Z,69766.28
2022-09-27T21:46:32.312Z,69784.16
2022-09-27T21:49:04.382Z,69747.59
2022-09-27T21:51:39.410Z,69709.38
2022-09-27T21:54:10.736Z,69763.06
2022-09-27T21:56:39.401Z,69740.28
2022-09-27T21:59:10.042Z,69737.31
2022-09-27T22:01:37.852Z,69771.81
2022-09-27T22:04:06.767Z,69761.25
2022-09-27T22:06:36.821Z,69803.38
2022-09-27T22:09:07.333Z,69773.50
2022-09-27T22:11:42.951Z,69772.94
2022-09-27T22:14:11.368Z,69810.38
2022-09-27T22:16:38.884Z,69794.50
2022-09-27T22:19:06.949Z,69796.88
2022-09-27T22:21:37.343Z,69807.09
2022-09-27T22:24:08.593Z,69799.50
2022-09-27T22:26:38.093Z,69800.91
2022-09-27T22:29:06.992Z,69830.44
2022-09-27T22:31:35.349Z,69837.16
2022-09-27T22:34:05.976Z,69830.69
2022-09-27T22:36:34.254Z,69852.34
2022-09-27T22:39:01.980Z,69846.19
2022-09-27T22:41:30.347Z,69853.50
2022-09-27T22:43:58.070Z,69832.97
2022-09-27T22:46:26.364Z,69861.34
2022-09-27T22:48:54.128Z,69852.84
2022-09-27T22:51:21.639Z,69848.09
2022-09-27T22:53:49.352Z,69875.63
2022-09-27T22:56:19.148Z,69851.00
2022-09-27T22:58:48.030Z,69883.78
2022-09-27T23:01:17.202Z,69873.25
2022-09-27T23:03:45.840Z,69863.59
2022-09-27T23:06:14.342Z,69870.03
2022-09-27T23:08:42.701Z,69908.13
2022-09-27T23:11:12.732Z,69879.97
2022-09-27T23:13:42.736Z,69890.53
2022-09-27T23:16:13.692Z,69890.84
2022-09-27T23:18:42.227Z,69848.03
2022-09-27T23:21:12.328Z,69875.28
2022-09-27T23:23:41.894Z,69854.50
2022-09-27T23:26:14.930Z,69882.03
2022-09-27T23:28:42.813Z,69906.63
2022-09-27T23:31:15.419Z,69882.63
2022-09-27T23:33:46.159Z,69873.81
2022-09-27T23:36:15.883Z,69899.59
2022-09-27T23:38:45.581Z,69853.63
2022-09-27T23:41:15.670Z,69885.91
2022-09-27T23:43:43.289Z,69848.66
2022-09-27T23:46:11.434Z,69850.69
2022-09-27T23:48:39.899Z,69865.63
2022-09-27T23:51:10.059Z,69876.44
2022-09-27T23:53:38.989Z,69873.25
2022-09-27T23:56:16.024Z,69905.47
2022-09-27T23:58:45.445Z,69893.72
